シドニー の空港の天気 - METARとTAF

シドニー国際空港 ( YSSY / SYD ) - オーストラリア ニューサウスウェールズ州、Mascot
飛行場実況気象(Metar)
観測時間02/21 12:00 AEDT (02/21 01:00 UTC)
風向・風速南 8m/s
視程10km以上
天気現象弱いしゅう雨
少しの雲 雲底高度 460m
全天の4割程度の雲 雲底高度 760m
全天の8割程度の雲 雲底高度 1220m
気温22℃
湿度83%
気圧1016hPa
METARYSSY 210100Z 18016KT 9999 -SHRA FEW015 SCT025 BKN040 22/19 Q1016
過去の天気等 Google飛行場航空写真 Wunderground天気予報

過去48時間のMETAR

飛行場予報(TAF)
発表時間: 2/21 10:04 AEDT (2/20 23:04 UTC)
予報対象時間: 21日11時 AEDT ~ 22日17時 AEDT
風向・風速南南東 6m/s
視程10km以上
天気現象弱いしゅう雨
少しの雲 雲底高度 300m
全天の8割程度の雲 雲底高度 610m
21日12時 AEDT から
風向・風速南南東 10m/s
視程10km以上
天気現象弱いしゅう雨
全天の8割程度の雲 雲底高度 760m
21日20時 AEDT から
風向・風速南南東 8m/s
視程10km以上
天気現象弱いしゅう雨
少しの雲 雲底高度 300m
全天の8割程度の雲 雲底高度 610m
22日9時 AEDT から
風向・風速南 10m/s
視程10km以上
天気現象弱いしゅう雨
全天の8割程度の雲 雲底高度 760m
TAF YSSY 202304Z 2100/2206 16012KT 9999 -SHRA FEW010 BKN020
FM210100 16020KT 9999 -SHRA BKN025
FM210900 16015KT 9999 -SHRA FEW010 BKN020
FM212200 17020KT 9999 -SHRA BKN025 INTER 2100/2101 5000 SHRA BKN010 INTER 2112/2122 5000 SHRA BKN010